Terminal Aerodrome Forecast
Issued by NWS Charleston, WV

Home | Current Version | Previous Version | Text Only | Print | Product List | Glossary On
Versions: 1 2 3 4 5 6 7 8 9 10 11 12 13 14 15 16 17 18 19 20 21 22 23 24 25 26
000
FTUS41 KRLX 231137
TAFPKB
TAF
KPKB 231137Z 2312/2412 07003KT P6SM BKN150
     FM231300 13004KT P6SM OVC120
     FM240600 09002KT 6SM BR OVC050
     FM240800 09001KT 4SM BR OVC050=

USA.gov is the U.S. government's official web portal to all federal, state and local government web resources and services.